createdAt,value
2019-04-14T00:00:38.975Z,6.00
2019-04-14T00:03:19.299Z,6.00
2019-04-14T00:05:52.272Z,5.90
2019-04-14T00:08:24.059Z,5.80
2019-04-14T00:10:55.084Z,5.90
2019-04-14T00:13:26.494Z,5.90
2019-04-14T00:15:57.151Z,5.90
2019-04-14T00:18:29.441Z,5.90
2019-04-14T00:21:00.270Z,5.80
2019-04-14T00:23:32.651Z,5.80
2019-04-14T00:26:31.946Z,5.80
2019-04-14T00:29:04.459Z,5.70
2019-04-14T00:31:37.024Z,5.70
2019-04-14T00:34:31.012Z,5.80
2019-04-14T00:37:20.548Z,5.80
2019-04-14T00:39:53.288Z,5.80
2019-04-14T00:42:43.044Z,5.80
2019-04-14T00:45:34.025Z,5.80
2019-04-14T00:48:11.811Z,5.70
2019-04-14T00:50:40.913Z,5.70
2019-04-14T00:53:12.069Z,5.70
2019-04-14T00:55:42.969Z,5.70
2019-04-14T00:58:13.509Z,5.80
2019-04-14T01:00:45.159Z,5.70
2019-04-14T01:03:15.812Z,5.70
2019-04-14T01:05:48.112Z,5.70
2019-04-14T01:08:18.904Z,5.80
2019-04-14T01:10:49.829Z,5.80
2019-04-14T01:13:20.536Z,5.60
2019-04-14T01:15:58.676Z,5.70
2019-04-14T01:18:25.421Z,5.80
2019-04-14T01:20:56.035Z,5.80
2019-04-14T01:23:28.297Z,5.80
2019-04-14T01:25:59.001Z,5.70
2019-04-14T01:28:30.713Z,5.70
2019-04-14T01:31:01.280Z,5.80
2019-04-14T01:33:31.747Z,5.70
2019-04-14T01:36:02.429Z,5.60
2019-04-14T01:38:34.242Z,5.60
2019-04-14T01:41:04.821Z,5.60
2019-04-14T01:43:36.389Z,5.60
2019-04-14T01:46:14.604Z,5.60
2019-04-14T01:48:39.308Z,5.60
2019-04-14T01:51:46.902Z,5.60
2019-04-14T01:54:36.661Z,5.60
2019-04-14T01:57:26.347Z,5.50
2019-04-14T01:59:58.882Z,5.50
2019-04-14T02:02:29.624Z,5.30
2019-04-14T02:05:00.084Z,5.30
2019-04-14T02:07:31.901Z,5.30
2019-04-14T02:10:03.914Z,5.30
2019-04-14T02:12:34.556Z,5.10
2019-04-14T02:15:05.353Z,5.10
2019-04-14T02:17:37.022Z,5.20
2019-04-14T02:20:09.929Z,5.30
2019-04-14T02:22:41.872Z,5.30
2019-04-14T02:25:12.614Z,5.20
2019-04-14T02:27:43.451Z,5.30
2019-04-14T02:30:19.548Z,5.30
2019-04-14T02:33:13.599Z,5.30
2019-04-14T02:35:45.479Z,5.40
2019-04-14T02:38:23.332Z,5.30
2019-04-14T02:40:55.559Z,5.30
2019-04-14T02:43:41.671Z,5.30
2019-04-14T02:48:36.131Z,5.20
2019-04-14T02:51:01.943Z,5.20
2019-04-14T02:53:34.279Z,5.20
2019-04-14T02:56:11.543Z,5.20
2019-04-14T02:58:51.952Z,5.30
2019-04-14T03:01:14.642Z,5.30
2019-04-14T03:03:41.696Z,5.30
2019-04-14T03:11:21.220Z,5.40
2019-04-14T03:16:23.334Z,5.30
2019-04-14T03:19:19.766Z,5.30
2019-04-14T03:22:12.582Z,5.30
2019-04-14T03:24:37.547Z,5.20
2019-04-14T03:30:39.045Z,5.30
2019-04-14T03:35:58.819Z,5.30
2019-04-14T03:37:52.565Z,5.30
2019-04-14T03:40:28.036Z,5.20
2019-04-14T03:43:03.956Z,5.20
2019-04-14T03:45:39.434Z,5.20
2019-04-14T03:50:31.371Z,5.30
2019-04-14T03:53:15.869Z,5.20
2019-04-14T03:55:55.375Z,5.30
2019-04-14T03:58:22.611Z,5.30
2019-04-14T04:00:53.424Z,5.30
2019-04-14T04:03:23.980Z,5.20
2019-04-14T04:05:54.692Z,5.30
2019-04-14T04:08:25.315Z,5.20
2019-04-14T04:10:57.499Z,5.10
2019-04-14T04:13:28.152Z,5.10
2019-04-14T04:16:13.797Z,5.20
2019-04-14T04:18:56.219Z,5.20
2019-04-14T04:21:26.996Z,5.30
2019-04-14T04:24:02.142Z,5.30
2019-04-14T04:26:58.189Z,5.40
2019-04-14T04:29:48.443Z,5.40
2019-04-14T04:32:38.606Z,5.50
2019-04-14T04:35:13.148Z,5.50
2019-04-14T04:38:11.787Z,5.50
2019-04-14T04:40:42.478Z,5.40
2019-04-14T04:43:12.973Z,5.40
2019-04-14T04:45:43.427Z,5.40
2019-04-14T04:48:17.311Z,5.50
2019-04-14T04:50:47.908Z,5.40
2019-04-14T04:53:18.437Z,5.40
2019-04-14T04:55:48.891Z,5.40
2019-04-14T04:58:19.583Z,5.40
2019-04-14T05:00:52.513Z,5.40
2019-04-14T05:03:23.323Z,5.50
2019-04-14T05:06:48.339Z,5.50
2019-04-14T05:09:56.143Z,5.60
2019-04-14T05:12:41.326Z,5.70
2019-04-14T05:15:40.284Z,5.60
2019-04-14T05:18:33.588Z,5.70
2019-04-14T05:21:04.030Z,5.70
2019-04-14T05:23:34.435Z,5.80
2019-04-14T05:26:05.140Z,5.80
2019-04-14T05:28:35.591Z,5.80
2019-04-14T05:31:06.064Z,5.80
2019-04-14T05:33:36.488Z,5.90
2019-04-14T05:36:06.988Z,5.90
2019-04-14T05:38:38.522Z,5.90
2019-04-14T05:41:09.341Z,6.00
2019-04-14T05:43:47.078Z,6.00
2019-04-14T05:46:12.141Z,5.90
2019-04-14T05:48:42.664Z,5.90
2019-04-14T05:51:13.177Z,5.90
2019-04-14T05:53:43.867Z,5.90
2019-04-14T05:56:14.597Z,5.90
2019-04-14T05:58:45.062Z,6.00
2019-04-14T06:01:16.121Z,6.10
2019-04-14T06:03:47.498Z,6.10
2019-04-14T06:06:18.179Z,6.20
2019-04-14T06:08:48.682Z,6.30
2019-04-14T06:11:19.213Z,6.40
2019-04-14T06:13:49.637Z,6.40
2019-04-14T06:16:20.257Z,6.50
2019-04-14T06:18:50.745Z,6.60
2019-04-14T06:21:21.212Z,6.90
2019-04-14T06:23:51.674Z,7.10
2019-04-14T06:26:22.386Z,7.40
2019-04-14T06:28:52.998Z,7.90
2019-04-14T06:31:51.579Z,8.70
2019-04-14T06:34:40.911Z,10.10
2019-04-14T06:37:24.435Z,11.80
2019-04-14T06:39:54.917Z,13.00
2019-04-14T06:42:25.593Z,13.60
2019-04-14T06:44:56.044Z,14.00
2019-04-14T06:47:26.576Z,15.10
2019-04-14T06:49:57.046Z,16.30
2019-04-14T06:52:27.660Z,17.20
2019-04-14T06:54:58.423Z,17.60
2019-04-14T06:57:29.102Z,17.10
2019-04-14T06:59:59.586Z,16.60
2019-04-14T07:02:30.360Z,16.30
2019-04-14T07:05:00.867Z,16.00
2019-04-14T07:07:31.611Z,16.20
2019-04-14T07:10:02.197Z,16.60
2019-04-14T07:12:33.003Z,16.60
2019-04-14T07:15:03.698Z,16.10
2019-04-14T07:17:34.517Z,16.30
2019-04-14T07:20:06.194Z,16.80
2019-04-14T07:22:36.744Z,17.10
2019-04-14T07:25:07.333Z,16.80
2019-04-14T07:27:37.819Z,16.50
2019-04-14T07:30:46.761Z,16.50
2019-04-14T07:33:36.394Z,17.00
2019-04-14T07:36:31.911Z,17.40
2019-04-14T07:39:19.969Z,17.30
2019-04-14T07:42:21.567Z,16.30
2019-04-14T07:45:11.039Z,15.80
2019-04-14T07:48:15.717Z,15.70
2019-04-14T07:51:14.435Z,15.70
2019-04-14T07:53:54.592Z,15.60
2019-04-14T07:56:46.829Z,15.50
2019-04-14T07:59:29.107Z,15.20
2019-04-14T08:02:21.618Z,14.70
2019-04-14T08:05:00.213Z,14.40
2019-04-14T08:07:30.740Z,14.10
2019-04-14T08:10:01.397Z,14.10
2019-04-14T08:12:31.923Z,14.20
2019-04-14T08:15:02.420Z,14.20
2019-04-14T08:17:32.975Z,14.20
2019-04-14T08:20:11.908Z,14.00
2019-04-14T08:22:53.435Z,13.90
2019-04-14T08:25:23.950Z,14.10
2019-04-14T08:27:54.421Z,14.40
2019-04-14T08:30:24.998Z,14.60
2019-04-14T08:32:55.761Z,14.50
2019-04-14T08:35:26.599Z,14.60
2019-04-14T08:37:57.666Z,14.60
2019-04-14T08:40:28.378Z,14.70
2019-04-14T08:43:11.410Z,14.80
2019-04-14T08:46:03.635Z,15.50
2019-04-14T08:48:51.587Z,16.40
2019-04-14T08:51:38.666Z,19.00
2019-04-14T08:54:28.083Z,21.10
2019-04-14T08:57:07.471Z,22.00
2019-04-14T08:59:57.566Z,23.10
2019-04-14T09:02:44.486Z,24.20
2019-04-14T09:05:35.319Z,26.50
2019-04-14T09:08:28.310Z,27.40
2019-04-14T09:11:00.979Z,27.40
2019-04-14T09:13:31.869Z,28.50
2019-04-14T09:16:02.695Z,28.80
2019-04-14T09:18:33.534Z,27.80
2019-04-14T09:21:04.873Z,27.20
2019-04-14T09:23:36.216Z,27.80
2019-04-14T09:26:06.678Z,28.90
2019-04-14T09:28:37.208Z,30.20
2019-04-14T09:31:07.767Z,30.20
2019-04-14T09:33:40.233Z,30.40
2019-04-14T09:36:10.775Z,31.00
2019-04-14T09:38:41.216Z,30.00
2019-04-14T09:41:12.011Z,29.20
2019-04-14T09:43:42.955Z,29.00
2019-04-14T09:46:13.472Z,29.90
2019-04-14T09:48:44.058Z,29.80
2019-04-14T09:51:15.000Z,29.80
2019-04-14T09:53:45.784Z,30.90
2019-04-14T09:56:16.604Z,31.10
2019-04-14T09:58:47.331Z,31.20
2019-04-14T10:01:18.479Z,30.30
2019-04-14T10:03:49.242Z,28.80
2019-04-14T10:06:19.805Z,28.40
2019-04-14T10:08:50.730Z,27.00
2019-04-14T10:11:21.299Z,25.70
2019-04-14T10:13:51.888Z,26.20
2019-04-14T10:16:22.483Z,27.70
2019-04-14T10:18:52.966Z,28.80
2019-04-14T10:21:23.455Z,29.20
2019-04-14T10:23:54.158Z,28.80
2019-04-14T10:26:24.813Z,28.50
2019-04-14T10:28:55.255Z,26.80
2019-04-14T10:31:25.847Z,26.20
2019-04-14T10:33:56.378Z,27.00
2019-04-14T10:36:26.886Z,28.40
2019-04-14T10:38:57.413Z,29.80
2019-04-14T10:41:27.969Z,31.70
2019-04-14T10:43:58.606Z,33.60
2019-04-14T10:46:29.243Z,32.90
2019-04-14T10:48:59.935Z,33.30
2019-04-14T10:51:33.849Z,34.40
2019-04-14T10:54:02.659Z,33.80
2019-04-14T10:56:33.241Z,31.20
2019-04-14T10:59:03.885Z,28.00
2019-04-14T11:01:34.889Z,26.70
2019-04-14T11:04:08.004Z,26.70
2019-04-14T11:06:41.519Z,27.30
2019-04-14T11:09:15.222Z,27.40
2019-04-14T11:11:46.585Z,26.60
2019-04-14T11:14:17.025Z,26.10
2019-04-14T11:16:47.505Z,25.70
2019-04-14T11:19:18.162Z,25.10
2019-04-14T11:21:48.690Z,24.20
2019-04-14T11:24:19.179Z,23.30
2019-04-14T11:26:49.736Z,22.40
2019-04-14T11:29:20.439Z,21.70
2019-04-14T11:32:11.488Z,20.90
2019-04-14T11:35:06.889Z,20.30
2019-04-14T11:38:02.102Z,19.90
2019-04-14T11:40:36.408Z,19.40
2019-04-14T11:43:07.142Z,19.40
2019-04-14T11:45:39.001Z,19.40
2019-04-14T11:48:09.566Z,18.60
2019-04-14T11:50:40.091Z,18.70
2019-04-14T11:53:12.245Z,18.60
2019-04-14T11:55:42.705Z,18.70
2019-04-14T11:58:13.178Z,19.00
2019-04-14T12:01:02.316Z,19.00
2019-04-14T12:03:43.931Z,19.10
2019-04-14T12:06:42.475Z,19.20
2019-04-14T12:09:40.948Z,18.80
2019-04-14T12:12:11.652Z,18.70
2019-04-14T12:14:42.375Z,18.70
2019-04-14T12:17:12.976Z,18.70
2019-04-14T12:19:43.715Z,18.60
2019-04-14T12:22:14.454Z,18.60
2019-04-14T12:24:45.087Z,18.30
2019-04-14T12:27:15.709Z,18.30
2019-04-14T12:29:47.946Z,18.20
2019-04-14T12:32:19.822Z,18.30
2019-04-14T12:34:50.884Z,18.30
2019-04-14T12:37:21.713Z,17.80
2019-04-14T12:39:52.423Z,17.60
2019-04-14T12:42:54.395Z,17.30
2019-04-14T12:45:52.699Z,16.80
2019-04-14T12:48:39.813Z,17.00
2019-04-14T12:51:20.505Z,17.10
2019-04-14T12:53:51.468Z,17.20
2019-04-14T12:56:25.720Z,17.40
2019-04-14T12:59:18.215Z,17.60
2019-04-14T13:01:56.306Z,17.60
2019-04-14T13:04:27.096Z,17.70
2019-04-14T13:06:58.115Z,17.70
2019-04-14T13:09:28.812Z,17.60
2019-04-14T13:11:59.568Z,17.40
2019-04-14T13:14:30.080Z,16.90
2019-04-14T13:17:00.575Z,16.40
2019-04-14T13:19:31.136Z,16.50
2019-04-14T13:22:01.736Z,16.10
2019-04-14T13:24:32.802Z,15.80
2019-04-14T13:27:03.398Z,15.70
2019-04-14T13:29:36.871Z,15.50
2019-04-14T13:32:07.670Z,15.70
2019-04-14T13:34:38.718Z,15.60
2019-04-14T13:37:09.150Z,15.40
2019-04-14T13:39:39.648Z,15.30
2019-04-14T13:42:10.298Z,15.20
2019-04-14T13:44:40.828Z,15.30
2019-04-14T13:47:11.374Z,15.20
2019-04-14T13:49:42.149Z,15.10
2019-04-14T13:52:12.730Z,15.20
2019-04-14T13:54:43.247Z,15.10
2019-04-14T13:57:13.779Z,15.30
2019-04-14T13:59:44.277Z,15.40
2019-04-14T14:02:14.760Z,15.20
2019-04-14T14:04:45.277Z,15.20
2019-04-14T14:07:15.734Z,15.20
2019-04-14T14:09:46.241Z,15.00
2019-04-14T14:12:33.990Z,15.10
2019-04-14T14:15:32.617Z,15.20
2019-04-14T14:18:34.096Z,15.50
2019-04-14T14:21:23.570Z,15.60
2019-04-14T14:24:01.045Z,15.60
2019-04-14T14:26:32.862Z,15.30
2019-04-14T14:29:03.348Z,15.10
2019-04-14T14:31:33.972Z,15.10
2019-04-14T14:34:04.779Z,15.20
2019-04-14T14:36:35.245Z,15.30
2019-04-14T14:39:08.803Z,15.50
2019-04-14T14:41:39.466Z,15.40
2019-04-14T14:44:09.994Z,15.40
2019-04-14T14:47:02.179Z,15.40
2019-04-14T14:49:51.555Z,15.50
2019-04-14T14:52:22.840Z,15.50
2019-04-14T14:54:53.326Z,15.60
2019-04-14T14:57:24.169Z,15.50
2019-04-14T14:59:55.728Z,15.70
2019-04-14T15:02:26.479Z,15.60
2019-04-14T15:04:57.007Z,15.40
2019-04-14T15:07:27.545Z,15.40
2019-04-14T15:09:58.020Z,15.50
2019-04-14T15:12:28.868Z,15.40
2019-04-14T15:14:59.346Z,15.20
2019-04-14T15:17:30.032Z,15.10
2019-04-14T15:20:00.738Z,14.90
2019-04-14T15:22:31.226Z,14.80
2019-04-14T15:25:01.982Z,14.80
2019-04-14T15:27:32.695Z,14.70
2019-04-14T15:30:04.150Z,14.80
2019-04-14T15:32:34.687Z,14.80
2019-04-14T15:35:05.493Z,14.70
2019-04-14T15:37:36.243Z,14.70
2019-04-14T15:40:07.819Z,14.80
2019-04-14T15:42:38.487Z,14.80
2019-04-14T15:45:10.159Z,14.70
2019-04-14T15:47:40.894Z,14.60
2019-04-14T15:50:11.523Z,14.50
2019-04-14T15:52:42.080Z,14.50
2019-04-14T15:55:14.994Z,14.50
2019-04-14T15:57:57.396Z,14.50
2019-04-14T16:00:47.050Z,14.20
2019-04-14T16:03:36.576Z,14.20
2019-04-14T16:06:28.703Z,14.30
2019-04-14T16:09:18.022Z,14.40
2019-04-14T16:11:57.110Z,14.40
2019-04-14T16:15:05.037Z,14.10
2019-04-14T16:17:57.487Z,13.90
2019-04-14T16:20:33.165Z,13.70
2019-04-14T16:23:03.682Z,13.60
2019-04-14T16:25:59.224Z,13.40
2019-04-14T16:28:37.974Z,13.40
2019-04-14T16:31:34.007Z,13.30
2019-04-14T16:34:26.386Z,13.20
2019-04-14T16:36:57.657Z,13.00
2019-04-14T16:39:28.239Z,12.90
2019-04-14T16:41:58.754Z,12.90
2019-04-14T16:44:29.400Z,12.80
2019-04-14T16:47:00.004Z,12.70
2019-04-14T16:49:30.525Z,12.60
2019-04-14T16:52:06.317Z,12.50
2019-04-14T16:54:58.777Z,12.40
2019-04-14T16:57:48.376Z,12.40
2019-04-14T17:00:28.858Z,12.30
2019-04-14T17:02:59.517Z,12.20
2019-04-14T17:05:30.157Z,12.20
2019-04-14T17:08:00.891Z,12.20
2019-04-14T17:10:31.403Z,12.10
2019-04-14T17:13:02.068Z,12.10
2019-04-14T17:16:03.542Z,12.10
2019-04-14T17:18:47.902Z,12.10
2019-04-14T17:21:36.233Z,12.10
2019-04-14T17:24:24.539Z,11.90
2019-04-14T17:27:17.004Z,11.90
2019-04-14T17:30:06.603Z,11.60
2019-04-14T17:32:58.189Z,11.50
2019-04-14T17:35:40.351Z,11.40
2019-04-14T17:38:16.653Z,11.10
2019-04-14T17:41:02.464Z,10.90
2019-04-14T17:43:43.921Z,10.90
2019-04-14T17:46:33.649Z,10.70
2019-04-14T17:49:20.625Z,10.80
2019-04-14T17:52:10.315Z,10.80
2019-04-14T17:55:02.975Z,10.80
2019-04-14T17:57:49.815Z,10.80
2019-04-14T18:00:25.747Z,10.80
2019-04-14T18:03:02.380Z,10.70
2019-04-14T18:05:45.327Z,10.70
2019-04-14T18:08:32.722Z,10.60
2019-04-14T18:11:08.702Z,10.50
2019-04-14T18:13:59.369Z,10.50
2019-04-14T18:16:34.808Z,10.50
2019-04-14T18:19:12.539Z,10.50
2019-04-14T18:21:44.391Z,10.50
2019-04-14T18:24:15.211Z,10.50
2019-04-14T18:26:45.756Z,10.40
2019-04-14T18:29:44.652Z,10.40
2019-04-14T18:32:37.292Z,10.30
2019-04-14T18:35:14.647Z,10.20
2019-04-14T18:38:06.988Z,10.20
2019-04-14T18:40:49.646Z,10.20
2019-04-14T18:43:48.535Z,10.20
2019-04-14T18:46:29.685Z,10.20
2019-04-14T18:49:05.759Z,10.20
2019-04-14T18:51:40.887Z,10.20
2019-04-14T18:54:39.605Z,10.20
2019-04-14T18:57:14.766Z,10.20
2019-04-14T19:00:10.632Z,10.20
2019-04-14T19:02:41.215Z,10.20
2019-04-14T19:05:11.984Z,10.20
2019-04-14T19:07:42.569Z,10.20
2019-04-14T19:10:13.701Z,10.20
2019-04-14T19:12:56.251Z,10.20
2019-04-14T19:15:46.331Z,10.20
2019-04-14T19:18:38.429Z,10.20
2019-04-14T19:21:12.001Z,10.10
2019-04-14T19:23:42.589Z,10.20
2019-04-14T19:26:13.184Z,10.20
2019-04-14T19:28:43.677Z,10.10
2019-04-14T19:31:14.802Z,10.20
2019-04-14T19:33:45.727Z,10.20
2019-04-14T19:36:16.264Z,10.10
2019-04-14T19:38:46.934Z,9.90
2019-04-14T19:41:17.658Z,9.90
2019-04-14T19:43:48.121Z,9.90
2019-04-14T19:46:19.058Z,9.90
2019-04-14T19:48:49.701Z,9.90
2019-04-14T19:51:20.215Z,9.90
2019-04-14T19:53:51.000Z,9.70
2019-04-14T19:56:21.639Z,9.80
2019-04-14T19:58:52.210Z,9.80
2019-04-14T20:01:22.889Z,9.80
2019-04-14T20:03:54.200Z,9.80
2019-04-14T20:06:25.761Z,9.70
2019-04-14T20:08:56.441Z,9.70
2019-04-14T20:11:27.323Z,9.80
2019-04-14T20:13:58.043Z,9.80
2019-04-14T20:16:59.722Z,9.90
2019-04-14T20:19:46.641Z,9.70
2019-04-14T20:22:36.136Z,9.80
2019-04-14T20:25:18.589Z,9.70
2019-04-14T20:27:54.169Z,9.70
2019-04-14T20:30:35.234Z,9.80
2019-04-14T20:33:05.948Z,9.70
2019-04-14T20:35:37.024Z,9.70
2019-04-14T20:38:07.569Z,9.80
2019-04-14T20:40:38.095Z,9.70
2019-04-14T20:43:08.979Z,9.70
2019-04-14T20:45:39.527Z,9.80
2019-04-14T20:48:10.193Z,9.80
2019-04-14T20:50:40.867Z,9.70
2019-04-14T20:53:11.458Z,9.70
2019-04-14T20:55:47.405Z,9.70
2019-04-14T20:58:14.742Z,9.70
2019-04-14T21:00:45.250Z,9.60
2019-04-14T21:03:32.786Z,9.60
2019-04-14T21:06:27.984Z,9.60
2019-04-14T21:09:26.961Z,9.70
2019-04-14T21:12:22.392Z,9.80
2019-04-14T21:15:09.875Z,9.70
2019-04-14T21:17:54.102Z,9.70
2019-04-14T21:20:35.201Z,9.50
2019-04-14T21:23:20.130Z,9.50
2019-04-14T21:26:00.693Z,9.60
2019-04-14T21:28:47.768Z,9.60
2019-04-14T21:31:30.564Z,9.70
2019-04-14T21:34:14.876Z,9.80
2019-04-14T21:37:09.349Z,9.60
2019-04-14T21:39:58.820Z,9.60
2019-04-14T21:42:29.372Z,9.60
2019-04-14T21:45:00.361Z,9.50
2019-04-14T21:47:30.950Z,9.50
2019-04-14T21:50:01.842Z,9.30
2019-04-14T21:52:44.283Z,9.30
2019-04-14T21:55:15.662Z,9.10
2019-04-14T21:58:20.368Z,9.20
2019-04-14T22:01:53.398Z,9.30
2019-04-14T22:04:42.652Z,9.20
2019-04-14T22:07:41.090Z,9.10
2019-04-14T22:10:23.017Z,9.00
2019-04-14T22:12:53.449Z,9.00
2019-04-14T22:15:24.529Z,9.00
2019-04-14T22:17:55.804Z,8.80
2019-04-14T22:20:26.311Z,8.80
2019-04-14T22:22:56.978Z,8.80
2019-04-14T22:25:27.399Z,8.80
2019-04-14T22:27:57.910Z,8.80
2019-04-14T22:30:28.401Z,8.70
2019-04-14T22:32:59.051Z,8.70
2019-04-14T22:35:29.533Z,8.60
2019-04-14T22:38:00.008Z,8.60
2019-04-14T22:40:30.415Z,8.70
2019-04-14T22:43:05.159Z,8.60
2019-04-14T22:45:36.019Z,8.70
2019-04-14T22:48:06.600Z,8.70
2019-04-14T22:50:37.016Z,8.70
2019-04-14T22:53:07.531Z,8.70
2019-04-14T22:55:38.017Z,8.80
2019-04-14T22:58:08.552Z,8.90
2019-04-14T23:00:50.010Z,8.90
2019-04-14T23:03:39.047Z,8.90
2019-04-14T23:06:32.075Z,9.00
2019-04-14T23:09:21.954Z,9.00
2019-04-14T23:12:09.925Z,9.00
2019-04-14T23:15:02.287Z,9.10
2019-04-14T23:17:53.868Z,9.00
2019-04-14T23:20:27.564Z,9.00
2019-04-14T23:23:03.740Z,9.00
2019-04-14T23:25:36.187Z,9.00
2019-04-14T23:28:06.684Z,9.00
2019-04-14T23:30:37.124Z,9.10
2019-04-14T23:33:07.587Z,9.10
2019-04-14T23:35:38.036Z,9.10
2019-04-14T23:38:08.511Z,9.00
2019-04-14T23:40:38.981Z,9.00
2019-04-14T23:43:09.517Z,8.90
2019-04-14T23:45:39.997Z,8.90
2019-04-14T23:48:10.481Z,8.90
2019-04-14T23:50:40.877Z,8.90
2019-04-14T23:53:11.380Z,8.60
2019-04-14T23:55:41.907Z,8.30
2019-04-14T23:58:12.439Z,8.20
